sensor_id;sensor_type;location;lat;lon;timestamp;temperature;humidity
7598;DHT22;3840;59.32098800;18.06423600;2023-11-22T00:00:10;-1.80;99.90
7598;DHT22;3840;59.32098800;18.06423600;2023-11-22T00:02:36;-1.90;99.90
7598;DHT22;3840;59.32098800;18.06423600;2023-11-22T00:05:03;-1.90;99.90
7598;DHT22;3840;59.32098800;18.06423600;2023-11-22T00:07:33;-2.00;99.90
7598;DHT22;3840;59.32098800;18.06423600;2023-11-22T00:09:59;-2.00;99.90
7598;DHT22;3840;59.32098800;18.06423600;2023-11-22T00:12:27;-1.50;99.90
7598;DHT22;3840;59.32098800;18.06423600;2023-11-22T00:14:53;-2.10;99.90
7598;DHT22;3840;59.32098800;18.06423600;2023-11-22T00:17:19;-2.10;99.90
7598;DHT22;3840;59.32098800;18.06423600;2023-11-22T00:19:45;-1.60;99.90
7598;DHT22;3840;59.32098800;18.06423600;2023-11-22T00:22:13;-1.90;99.90
7598;DHT22;3840;59.32098800;18.06423600;2023-11-22T00:24:40;-2.20;99.90
7598;DHT22;3840;59.32098800;18.06423600;2023-11-22T00:27:07;-2.20;99.90
7598;DHT22;3840;59.32098800;18.06423600;2023-11-22T00:29:33;-2.20;99.90
7598;DHT22;3840;59.32098800;18.06423600;2023-11-22T00:31:58;-2.30;99.90
7598;DHT22;3840;59.32098800;18.06423600;2023-11-22T00:34:25;-2.30;99.90
7598;DHT22;3840;59.32098800;18.06423600;2023-11-22T00:36:52;-1.70;99.90
7598;DHT22;3840;59.32098800;18.06423600;2023-11-22T00:39:18;-2.30;99.90
7598;DHT22;3840;59.32098800;18.06423600;2023-11-22T00:41:44;-2.40;99.90
7598;DHT22;3840;59.32098800;18.06423600;2023-11-22T00:44:10;-2.40;99.90
7598;DHT22;3840;59.32098800;18.06423600;2023-11-22T00:46:36;-2.30;99.90
7598;DHT22;3840;59.32098800;18.06423600;2023-11-22T00:49:05;-2.40;99.90
7598;DHT22;3840;59.32098800;18.06423600;2023-11-22T00:51:31;-2.40;99.90
7598;DHT22;3840;59.32098800;18.06423600;2023-11-22T00:53:58;-2.40;99.90
7598;DHT22;3840;59.32098800;18.06423600;2023-11-22T00:56:24;-2.30;99.90
7598;DHT22;3840;59.32098800;18.06423600;2023-11-22T00:58:50;-2.40;99.90
7598;DHT22;3840;59.32098800;18.06423600;2023-11-22T01:01:17;-2.40;99.90
7598;DHT22;3840;59.32098800;18.06423600;2023-11-22T01:03:43;-2.40;99.90
7598;DHT22;3840;59.32098800;18.06423600;2023-11-22T01:06:09;-2.50;99.90
7598;DHT22;3840;59.32098800;18.06423600;2023-11-22T01:08:35;-2.50;99.90
7598;DHT22;3840;59.32098800;18.06423600;2023-11-22T01:11:02;-2.50;99.90
7598;DHT22;3840;59.32098800;18.06423600;2023-11-22T01:13:29;-2.50;99.90
7598;DHT22;3840;59.32098800;18.06423600;2023-11-22T01:15:55;-2.50;99.90
7598;DHT22;3840;59.32098800;18.06423600;2023-11-22T01:18:20;-2.50;99.90
7598;DHT22;3840;59.32098800;18.06423600;2023-11-22T01:20:46;-2.50;99.90
7598;DHT22;3840;59.32098800;18.06423600;2023-11-22T01:23:12;-2.70;99.90
7598;DHT22;3840;59.32098800;18.06423600;2023-11-22T01:25:37;-2.60;99.90
7598;DHT22;3840;59.32098800;18.06423600;2023-11-22T01:28:03;-2.60;99.90
7598;DHT22;3840;59.32098800;18.06423600;2023-11-22T01:30:29;-2.60;99.90
7598;DHT22;3840;59.32098800;18.06423600;2023-11-22T01:32:54;-2.70;99.90
7598;DHT22;3840;59.32098800;18.06423600;2023-11-22T01:35:30;-2.60;99.90
7598;DHT22;3840;59.32098800;18.06423600;2023-11-22T01:37:55;-2.70;99.90
7598;DHT22;3840;59.32098800;18.06423600;2023-11-22T01:40:23;-2.70;99.90
7598;DHT22;3840;59.32098800;18.06423600;2023-11-22T01:42:49;-2.70;99.90
7598;DHT22;3840;59.32098800;18.06423600;2023-11-22T01:45:14;-2.50;99.90
7598;DHT22;3840;59.32098800;18.06423600;2023-11-22T01:47:40;-2.80;99.90
7598;DHT22;3840;59.32098800;18.06423600;2023-11-22T01:50:06;-2.70;99.90
7598;DHT22;3840;59.32098800;18.06423600;2023-11-22T01:52:34;-2.70;99.90
7598;DHT22;3840;59.32098800;18.06423600;2023-11-22T01:55:01;-2.80;99.90
7598;DHT22;3840;59.32098800;18.06423600;2023-11-22T01:57:33;-2.80;99.90
7598;DHT22;3840;59.32098800;18.06423600;2023-11-22T02:00:03;-2.80;99.90
7598;DHT22;3840;59.32098800;18.06423600;2023-11-22T02:02:30;-2.80;99.90
7598;DHT22;3840;59.32098800;18.06423600;2023-11-22T02:04:57;-2.80;99.90
7598;DHT22;3840;59.32098800;18.06423600;2023-11-22T02:07:23;-2.80;99.90
7598;DHT22;3840;59.32098800;18.06423600;2023-11-22T02:09:48;-2.80;99.90
7598;DHT22;3840;59.32098800;18.06423600;2023-11-22T02:12:15;-2.80;99.90
7598;DHT22;3840;59.32098800;18.06423600;2023-11-22T02:14:40;-2.90;99.90
7598;DHT22;3840;59.32098800;18.06423600;2023-11-22T02:17:06;-2.80;99.90
7598;DHT22;3840;59.32098800;18.06423600;2023-11-22T02:19:32;-2.80;99.90
7598;DHT22;3840;59.32098800;18.06423600;2023-11-22T02:21:58;-2.80;99.90
7598;DHT22;3840;59.32098800;18.06423600;2023-11-22T02:24:24;-2.90;99.90
7598;DHT22;3840;59.32098800;18.06423600;2023-11-22T02:26:50;-2.90;99.90
7598;DHT22;3840;59.32098800;18.06423600;2023-11-22T02:29:17;-2.90;99.90
7598;DHT22;3840;59.32098800;18.06423600;2023-11-22T02:31:43;-2.90;99.90
7598;DHT22;3840;59.32098800;18.06423600;2023-11-22T02:34:09;-2.90;99.90
7598;DHT22;3840;59.32098800;18.06423600;2023-11-22T02:36:35;-2.30;99.90
7598;DHT22;3840;59.32098800;18.06423600;2023-11-22T02:39:01;-2.80;99.90
7598;DHT22;3840;59.32098800;18.06423600;2023-11-22T02:41:27;-3.00;99.90
7598;DHT22;3840;59.32098800;18.06423600;2023-11-22T02:43:55;-3.00;99.90
7598;DHT22;3840;59.32098800;18.06423600;2023-11-22T02:46:22;-3.00;99.90
7598;DHT22;3840;59.32098800;18.06423600;2023-11-22T02:48:49;-3.00;99.90
7598;DHT22;3840;59.32098800;18.06423600;2023-11-22T02:51:15;-2.90;99.90
7598;DHT22;3840;59.32098800;18.06423600;2023-11-22T02:53:42;-3.00;99.90
7598;DHT22;3840;59.32098800;18.06423600;2023-11-22T02:56:09;-3.00;99.90
7598;DHT22;3840;59.32098800;18.06423600;2023-11-22T02:58:36;-2.90;99.90
7598;DHT22;3840;59.32098800;18.06423600;2023-11-22T03:01:01;-2.50;99.90
7598;DHT22;3840;59.32098800;18.06423600;2023-11-22T03:03:27;-2.80;99.90
7598;DHT22;3840;59.32098800;18.06423600;2023-11-22T03:05:53;-2.60;99.90
7598;DHT22;3840;59.32098800;18.06423600;2023-11-22T03:08:20;-2.80;99.90
7598;DHT22;3840;59.32098800;18.06423600;2023-11-22T03:10:46;-2.90;99.90
7598;DHT22;3840;59.32098800;18.06423600;2023-11-22T03:13:11;-2.90;99.90
7598;DHT22;3840;59.32098800;18.06423600;2023-11-22T03:15:38;-3.00;99.90
7598;DHT22;3840;59.32098800;18.06423600;2023-11-22T03:18:04;-3.10;99.90
7598;DHT22;3840;59.32098800;18.06423600;2023-11-22T03:20:32;-3.10;99.90
7598;DHT22;3840;59.32098800;18.06423600;2023-11-22T03:22:58;-2.60;99.90
7598;DHT22;3840;59.32098800;18.06423600;2023-11-22T03:25:24;-3.10;99.90
7598;DHT22;3840;59.32098800;18.06423600;2023-11-22T03:27:49;-3.10;99.90
7598;DHT22;3840;59.32098800;18.06423600;2023-11-22T03:30:15;-3.10;99.90
7598;DHT22;3840;59.32098800;18.06423600;2023-11-22T03:32:41;-3.00;99.90
7598;DHT22;3840;59.32098800;18.06423600;2023-11-22T03:35:08;-3.00;99.90
7598;DHT22;3840;59.32098800;18.06423600;2023-11-22T03:37:34;-3.00;99.90
7598;DHT22;3840;59.32098800;18.06423600;2023-11-22T03:40:00;-3.00;99.90
7598;DHT22;3840;59.32098800;18.06423600;2023-11-22T03:42:25;-3.00;99.90
7598;DHT22;3840;59.32098800;18.06423600;2023-11-22T03:44:52;-3.00;99.90
7598;DHT22;3840;59.32098800;18.06423600;2023-11-22T03:47:19;-3.00;99.90
7598;DHT22;3840;59.32098800;18.06423600;2023-11-22T03:49:45;-3.00;99.90
7598;DHT22;3840;59.32098800;18.06423600;2023-11-22T03:52:11;-3.10;99.90
7598;DHT22;3840;59.32098800;18.06423600;2023-11-22T03:54:37;-3.10;99.90
7598;DHT22;3840;59.32098800;18.06423600;2023-11-22T03:57:04;-3.10;99.90
7598;DHT22;3840;59.32098800;18.06423600;2023-11-22T03:59:30;-3.20;99.90
7598;DHT22;3840;59.32098800;18.06423600;2023-11-22T04:01:55;-3.10;99.90
7598;DHT22;3840;59.32098800;18.06423600;2023-11-22T04:04:21;-3.10;99.90
7598;DHT22;3840;59.32098800;18.06423600;2023-11-22T04:06:47;-3.20;99.90
7598;DHT22;3840;59.32098800;18.06423600;2023-11-22T04:09:13;-3.30;99.90
7598;DHT22;3840;59.32098800;18.06423600;2023-11-22T04:11:39;-3.30;99.90
7598;DHT22;3840;59.32098800;18.06423600;2023-11-22T04:14:05;-3.40;99.90
7598;DHT22;3840;59.32098800;18.06423600;2023-11-22T04:16:31;-3.40;99.90
7598;DHT22;3840;59.32098800;18.06423600;2023-11-22T04:18:57;-3.40;99.90
7598;DHT22;3840;59.32098800;18.06423600;2023-11-22T04:21:23;-3.40;99.90
7598;DHT22;3840;59.32098800;18.06423600;2023-11-22T04:23:49;-3.00;99.90
7598;DHT22;3840;59.32098800;18.06423600;2023-11-22T04:26:15;-3.40;99.90
7598;DHT22;3840;59.32098800;18.06423600;2023-11-22T04:28:41;-3.20;99.90
7598;DHT22;3840;59.32098800;18.06423600;2023-11-22T04:31:07;-3.40;99.90
7598;DHT22;3840;59.32098800;18.06423600;2023-11-22T04:33:34;-3.40;99.90
7598;DHT22;3840;59.32098800;18.06423600;2023-11-22T04:36:00;-2.80;99.90
7598;DHT22;3840;59.32098800;18.06423600;2023-11-22T04:38:26;-3.40;99.90
7598;DHT22;3840;59.32098800;18.06423600;2023-11-22T04:40:52;-3.40;99.90
7598;DHT22;3840;59.32098800;18.06423600;2023-11-22T04:43:17;-3.40;99.90
7598;DHT22;3840;59.32098800;18.06423600;2023-11-22T04:45:43;-3.40;99.90
7598;DHT22;3840;59.32098800;18.06423600;2023-11-22T04:48:09;-3.30;99.90
7598;DHT22;3840;59.32098800;18.06423600;2023-11-22T04:50:35;-3.30;99.90
7598;DHT22;3840;59.32098800;18.06423600;2023-11-22T04:53:01;-3.30;99.90
7598;DHT22;3840;59.32098800;18.06423600;2023-11-22T04:55:27;-3.30;99.90
7598;DHT22;3840;59.32098800;18.06423600;2023-11-22T04:57:54;-3.30;99.90
7598;DHT22;3840;59.32098800;18.06423600;2023-11-22T05:00:20;-3.30;99.90
7598;DHT22;3840;59.32098800;18.06423600;2023-11-22T05:02:48;-3.30;99.90
7598;DHT22;3840;59.32098800;18.06423600;2023-11-22T05:05:14;-3.30;99.90
7598;DHT22;3840;59.32098800;18.06423600;2023-11-22T05:07:39;-3.30;99.90
7598;DHT22;3840;59.32098800;18.06423600;2023-11-22T05:10:06;-3.30;99.90
7598;DHT22;3840;59.32098800;18.06423600;2023-11-22T05:12:35;-3.30;99.90
7598;DHT22;3840;59.32098800;18.06423600;2023-11-22T05:15:01;-3.30;99.90
7598;DHT22;3840;59.32098800;18.06423600;2023-11-22T05:17:27;-2.50;99.90
7598;DHT22;3840;59.32098800;18.06423600;2023-11-22T05:19:53;-3.30;99.90
7598;DHT22;3840;59.32098800;18.06423600;2023-11-22T05:22:19;-3.30;99.90
7598;DHT22;3840;59.32098800;18.06423600;2023-11-22T05:24:44;-3.30;99.90
7598;DHT22;3840;59.32098800;18.06423600;2023-11-22T05:27:10;-3.30;99.90
7598;DHT22;3840;59.32098800;18.06423600;2023-11-22T05:29:36;-3.30;99.90
7598;DHT22;3840;59.32098800;18.06423600;2023-11-22T05:32:02;-3.30;99.90
7598;DHT22;3840;59.32098800;18.06423600;2023-11-22T05:34:29;-3.30;99.90
7598;DHT22;3840;59.32098800;18.06423600;2023-11-22T05:36:54;-3.40;99.90
7598;DHT22;3840;59.32098800;18.06423600;2023-11-22T05:39:20;-3.40;99.90
7598;DHT22;3840;59.32098800;18.06423600;2023-11-22T05:41:48;-3.40;99.90
7598;DHT22;3840;59.32098800;18.06423600;2023-11-22T05:44:14;-3.40;99.90
7598;DHT22;3840;59.32098800;18.06423600;2023-11-22T05:46:40;-3.50;99.90
7598;DHT22;3840;59.32098800;18.06423600;2023-11-22T05:49:06;-3.50;99.90
7598;DHT22;3840;59.32098800;18.06423600;2023-11-22T05:51:32;-3.50;99.90
7598;DHT22;3840;59.32098800;18.06423600;2023-11-22T05:53:59;-3.50;99.90
7598;DHT22;3840;59.32098800;18.06423600;2023-11-22T05:56:25;-3.50;99.90
7598;DHT22;3840;59.32098800;18.06423600;2023-11-22T05:58:50;-3.50;99.90
7598;DHT22;3840;59.32098800;18.06423600;2023-11-22T06:01:16;-3.50;99.90
7598;DHT22;3840;59.32098800;18.06423600;2023-11-22T06:03:42;-3.60;99.90
7598;DHT22;3840;59.32098800;18.06423600;2023-11-22T06:06:08;-3.70;99.90
7598;DHT22;3840;59.32098800;18.06423600;2023-11-22T06:08:34;-3.70;99.90
7598;DHT22;3840;59.32098800;18.06423600;2023-11-22T06:10:59;-3.70;99.90
7598;DHT22;3840;59.32098800;18.06423600;2023-11-22T06:13:26;-3.70;99.90
7598;DHT22;3840;59.32098800;18.06423600;2023-11-22T06:15:52;-3.80;99.90
7598;DHT22;3840;59.32098800;18.06423600;2023-11-22T06:18:18;-3.70;99.90
7598;DHT22;3840;59.32098800;18.06423600;2023-11-22T06:20:44;-3.50;99.90
7598;DHT22;3840;59.32098800;18.06423600;2023-11-22T06:23:10;-3.80;99.90
7598;DHT22;3840;59.32098800;18.06423600;2023-11-22T06:25:36;-3.80;99.90
7598;DHT22;3840;59.32098800;18.06423600;2023-11-22T06:28:02;-3.80;99.90
7598;DHT22;3840;59.32098800;18.06423600;2023-11-22T06:30:28;-3.80;99.90
7598;DHT22;3840;59.32098800;18.06423600;2023-11-22T06:32:56;-3.80;99.90
7598;DHT22;3840;59.32098800;18.06423600;2023-11-22T06:35:21;-3.70;99.90
7598;DHT22;3840;59.32098800;18.06423600;2023-11-22T06:37:47;-3.70;99.90
7598;DHT22;3840;59.32098800;18.06423600;2023-11-22T06:40:13;-3.60;99.90
7598;DHT22;3840;59.32098800;18.06423600;2023-11-22T06:42:42;-3.60;99.90
7598;DHT22;3840;59.32098800;18.06423600;2023-11-22T06:45:08;-3.70;99.90
7598;DHT22;3840;59.32098800;18.06423600;2023-11-22T06:47:42;-3.80;99.90
7598;DHT22;3840;59.32098800;18.06423600;2023-11-22T06:50:08;-3.90;99.90
7598;DHT22;3840;59.32098800;18.06423600;2023-11-22T06:52:36;-3.90;99.90
7598;DHT22;3840;59.32098800;18.06423600;2023-11-22T06:55:02;-3.90;99.90
7598;DHT22;3840;59.32098800;18.06423600;2023-11-22T06:57:28;-3.80;99.90
7598;DHT22;3840;59.32098800;18.06423600;2023-11-22T06:59:55;-3.70;99.90
7598;DHT22;3840;59.32098800;18.06423600;2023-11-22T07:02:21;-3.70;99.90
7598;DHT22;3840;59.32098800;18.06423600;2023-11-22T07:04:47;-3.60;99.90
7598;DHT22;3840;59.32098800;18.06423600;2023-11-22T07:07:15;-3.60;99.90
7598;DHT22;3840;59.32098800;18.06423600;2023-11-22T07:09:44;-3.60;99.90
7598;DHT22;3840;59.32098800;18.06423600;2023-11-22T07:12:11;-3.50;99.90
7598;DHT22;3840;59.32098800;18.06423600;2023-11-22T07:14:37;-3.40;99.90
7598;DHT22;3840;59.32098800;18.06423600;2023-11-22T07:17:03;-3.30;99.90
7598;DHT22;3840;59.32098800;18.06423600;2023-11-22T07:19:32;-3.30;99.90
7598;DHT22;3840;59.32098800;18.06423600;2023-11-22T07:21:59;-3.20;99.90
7598;DHT22;3840;59.32098800;18.06423600;2023-11-22T07:24:25;-3.20;99.90
7598;DHT22;3840;59.32098800;18.06423600;2023-11-22T07:26:51;-3.10;99.90
7598;DHT22;3840;59.32098800;18.06423600;2023-11-22T07:29:16;-3.10;99.90
7598;DHT22;3840;59.32098800;18.06423600;2023-11-22T07:31:42;-3.10;99.90
7598;DHT22;3840;59.32098800;18.06423600;2023-11-22T07:34:08;-2.50;99.90
7598;DHT22;3840;59.32098800;18.06423600;2023-11-22T07:36:36;-3.10;99.90
7598;DHT22;3840;59.32098800;18.06423600;2023-11-22T07:39:03;-3.10;99.90
7598;DHT22;3840;59.32098800;18.06423600;2023-11-22T07:41:30;-2.90;99.90
7598;DHT22;3840;59.32098800;18.06423600;2023-11-22T07:43:57;-3.00;99.90
7598;DHT22;3840;59.32098800;18.06423600;2023-11-22T07:46:23;-3.00;99.90
7598;DHT22;3840;59.32098800;18.06423600;2023-11-22T07:48:50;-2.90;99.90
7598;DHT22;3840;59.32098800;18.06423600;2023-11-22T07:51:17;-2.70;99.90
7598;DHT22;3840;59.32098800;18.06423600;2023-11-22T07:53:42;-3.00;99.90
7598;DHT22;3840;59.32098800;18.06423600;2023-11-22T07:56:09;-2.70;99.90
7598;DHT22;3840;59.32098800;18.06423600;2023-11-22T07:58:37;-2.60;99.90
7598;DHT22;3840;59.32098800;18.06423600;2023-11-22T08:01:03;-2.60;99.90
7598;DHT22;3840;59.32098800;18.06423600;2023-11-22T08:03:39;-2.50;99.90
7598;DHT22;3840;59.32098800;18.06423600;2023-11-22T08:06:09;-2.40;99.90
7598;DHT22;3840;59.32098800;18.06423600;2023-11-22T08:08:36;-2.20;99.90
7598;DHT22;3840;59.32098800;18.06423600;2023-11-22T08:11:05;-2.20;99.90
7598;DHT22;3840;59.32098800;18.06423600;2023-11-22T08:13:43;-2.10;99.90
7598;DHT22;3840;59.32098800;18.06423600;2023-11-22T08:16:11;-2.10;99.90
7598;DHT22;3840;59.32098800;18.06423600;2023-11-22T08:18:40;-2.10;99.90
7598;DHT22;3840;59.32098800;18.06423600;2023-11-22T08:21:08;-1.90;99.90
7598;DHT22;3840;59.32098800;18.06423600;2023-11-22T08:23:36;-1.80;99.90
7598;DHT22;3840;59.32098800;18.06423600;2023-11-22T08:26:02;-1.80;99.90
7598;DHT22;3840;59.32098800;18.06423600;2023-11-22T08:28:29;-1.80;99.90
7598;DHT22;3840;59.32098800;18.06423600;2023-11-22T08:30:54;-1.70;99.90
7598;DHT22;3840;59.32098800;18.06423600;2023-11-22T08:33:21;-1.60;99.90
7598;DHT22;3840;59.32098800;18.06423600;2023-11-22T08:35:48;-1.50;99.90
7598;DHT22;3840;59.32098800;18.06423600;2023-11-22T08:38:16;-1.50;99.90
7598;DHT22;3840;59.32098800;18.06423600;2023-11-22T08:40:43;-1.50;99.90
7598;DHT22;3840;59.32098800;18.06423600;2023-11-22T08:43:08;-1.50;99.90
7598;DHT22;3840;59.32098800;18.06423600;2023-11-22T08:45:34;-1.50;99.90
7598;DHT22;3840;59.32098800;18.06423600;2023-11-22T08:48:00;-1.40;99.90
7598;DHT22;3840;59.32098800;18.06423600;2023-11-22T08:50:26;-1.30;99.90
7598;DHT22;3840;59.32098800;18.06423600;2023-11-22T08:52:53;-1.30;99.90
7598;DHT22;3840;59.32098800;18.06423600;2023-11-22T08:55:21;-1.30;99.90
7598;DHT22;3840;59.32098800;18.06423600;2023-11-22T08:57:50;-1.40;99.90
7598;DHT22;3840;59.32098800;18.06423600;2023-11-22T09:00:16;-1.30;99.90
7598;DHT22;3840;59.32098800;18.06423600;2023-11-22T09:02:50;-1.20;99.90
7598;DHT22;3840;59.32098800;18.06423600;2023-11-22T09:05:16;-1.20;99.90
7598;DHT22;3840;59.32098800;18.06423600;2023-11-22T09:07:44;-1.20;99.90
7598;DHT22;3840;59.32098800;18.06423600;2023-11-22T09:10:10;-1.10;99.90
7598;DHT22;3840;59.32098800;18.06423600;2023-11-22T09:12:42;-1.00;99.90
7598;DHT22;3840;59.32098800;18.06423600;2023-11-22T09:15:13;-0.80;99.90
7598;DHT22;3840;59.32098800;18.06423600;2023-11-22T09:17:42;-0.80;99.90
7598;DHT22;3840;59.32098800;18.06423600;2023-11-22T09:20:12;-0.80;99.90
7598;DHT22;3840;59.32098800;18.06423600;2023-11-22T09:22:46;-0.70;99.90
7598;DHT22;3840;59.32098800;18.06423600;2023-11-22T09:25:14;-0.70;99.90
7598;DHT22;3840;59.32098800;18.06423600;2023-11-22T09:27:43;-0.60;99.90
7598;DHT22;3840;59.32098800;18.06423600;2023-11-22T09:30:12;-0.50;99.90
7598;DHT22;3840;59.32098800;18.06423600;2023-11-22T09:32:45;-0.50;99.90
7598;DHT22;3840;59.32098800;18.06423600;2023-11-22T09:35:12;-0.40;99.90
7598;DHT22;3840;59.32098800;18.06423600;2023-11-22T09:37:39;-0.50;99.90
7598;DHT22;3840;59.32098800;18.06423600;2023-11-22T09:40:08;-0.40;99.90
7598;DHT22;3840;59.32098800;18.06423600;2023-11-22T09:42:35;-0.40;99.90
7598;DHT22;3840;59.32098800;18.06423600;2023-11-22T09:45:02;-0.50;99.90
7598;DHT22;3840;59.32098800;18.06423600;2023-11-22T09:47:31;-0.50;99.90
7598;DHT22;3840;59.32098800;18.06423600;2023-11-22T09:49:57;-0.30;99.90
7598;DHT22;3840;59.32098800;18.06423600;2023-11-22T09:52:28;0.00;99.90
7598;DHT22;3840;59.32098800;18.06423600;2023-11-22T09:54:55;-0.30;99.90
7598;DHT22;3840;59.32098800;18.06423600;2023-11-22T09:57:22;-0.40;99.90
7598;DHT22;3840;59.32098800;18.06423600;2023-11-22T09:59:50;-0.40;99.90
7598;DHT22;3840;59.32098800;18.06423600;2023-11-22T10:02:17;-0.40;99.90
7598;DHT22;3840;59.32098800;18.06423600;2023-11-22T10:04:43;-0.40;99.90
7598;DHT22;3840;59.32098800;18.06423600;2023-11-22T10:07:10;-0.40;99.90
7598;DHT22;3840;59.32098800;18.06423600;2023-11-22T10:09:36;-0.30;99.90
7598;DHT22;3840;59.32098800;18.06423600;2023-11-22T10:12:04;-0.30;99.90
7598;DHT22;3840;59.32098800;18.06423600;2023-11-22T10:14:30;-0.30;99.90
7598;DHT22;3840;59.32098800;18.06423600;2023-11-22T10:17:02;-0.20;99.90
7598;DHT22;3840;59.32098800;18.06423600;2023-11-22T10:19:28;-0.10;99.90
7598;DHT22;3840;59.32098800;18.06423600;2023-11-22T10:22:05;-0.20;99.90
7598;DHT22;3840;59.32098800;18.06423600;2023-11-22T10:24:32;-0.20;99.90
7598;DHT22;3840;59.32098800;18.06423600;2023-11-22T10:27:01;-0.30;99.90
7598;DHT22;3840;59.32098800;18.06423600;2023-11-22T10:29:28;-0.30;99.90
7598;DHT22;3840;59.32098800;18.06423600;2023-11-22T10:31:54;-0.20;99.90
7598;DHT22;3840;59.32098800;18.06423600;2023-11-22T10:34:24;-0.20;99.90
7598;DHT22;3840;59.32098800;18.06423600;2023-11-22T10:36:50;-0.20;99.90
7598;DHT22;3840;59.32098800;18.06423600;2023-11-22T10:39:19;-0.20;99.90
7598;DHT22;3840;59.32098800;18.06423600;2023-11-22T10:41:46;-0.20;99.90
7598;DHT22;3840;59.32098800;18.06423600;2023-11-22T10:44:12;0.20;99.90
7598;DHT22;3840;59.32098800;18.06423600;2023-11-22T10:46:39;-0.20;99.90
7598;DHT22;3840;59.32098800;18.06423600;2023-11-22T10:49:05;-0.10;99.90
7598;DHT22;3840;59.32098800;18.06423600;2023-11-22T10:51:32;-0.10;99.90
7598;DHT22;3840;59.32098800;18.06423600;2023-11-22T10:54:00;-0.10;99.90
7598;DHT22;3840;59.32098800;18.06423600;2023-11-22T10:56:31;-0.10;99.90
7598;DHT22;3840;59.32098800;18.06423600;2023-11-22T10:59:09;0.60;99.90
7598;DHT22;3840;59.32098800;18.06423600;2023-11-22T11:01:35;0.10;99.90
7598;DHT22;3840;59.32098800;18.06423600;2023-11-22T11:04:09;0.00;99.90
7598;DHT22;3840;59.32098800;18.06423600;2023-11-22T11:06:37;0.00;99.90
7598;DHT22;3840;59.32098800;18.06423600;2023-11-22T11:09:06;0.50;99.90
7598;DHT22;3840;59.32098800;18.06423600;2023-11-22T11:11:37;0.00;99.90
7598;DHT22;3840;59.32098800;18.06423600;2023-11-22T11:14:03;0.00;99.90
7598;DHT22;3840;59.32098800;18.06423600;2023-11-22T11:16:32;0.00;99.90
7598;DHT22;3840;59.32098800;18.06423600;2023-11-22T11:19:00;0.00;99.90
7598;DHT22;3840;59.32098800;18.06423600;2023-11-22T11:21:27;0.10;99.90
7598;DHT22;3840;59.32098800;18.06423600;2023-11-22T11:23:52;0.30;99.90
7598;DHT22;3840;59.32098800;18.06423600;2023-11-22T11:26:20;0.10;99.90
7598;DHT22;3840;59.32098800;18.06423600;2023-11-22T11:28:51;0.20;99.90
7598;DHT22;3840;59.32098800;18.06423600;2023-11-22T11:31:21;0.20;99.90
7598;DHT22;3840;59.32098800;18.06423600;2023-11-22T11:36:28;0.20;99.90
7598;DHT22;3840;59.32098800;18.06423600;2023-11-22T11:38:56;0.20;99.90
7598;DHT22;3840;59.32098800;18.06423600;2023-11-22T11:41:32;0.20;99.90
7598;DHT22;3840;59.32098800;18.06423600;2023-11-22T11:44:00;0.30;99.90
7598;DHT22;3840;59.32098800;18.06423600;2023-11-22T11:46:26;0.30;99.90
7598;DHT22;3840;59.32098800;18.06423600;2023-11-22T11:48:55;0.30;99.90
7598;DHT22;3840;59.32098800;18.06423600;2023-11-22T11:51:28;0.30;99.90
7598;DHT22;3840;59.32098800;18.06423600;2023-11-22T11:53:55;0.40;99.90
7598;DHT22;3840;59.32098800;18.06423600;2023-11-22T11:56:21;0.40;99.90
7598;DHT22;3840;59.32098800;18.06423600;2023-11-22T11:58:49;0.50;99.90
7598;DHT22;3840;59.32098800;18.06423600;2023-11-22T12:01:16;0.50;99.90
7598;DHT22;3840;59.32098800;18.06423600;2023-11-22T12:03:42;0.60;99.90
7598;DHT22;3840;59.32098800;18.06423600;2023-11-22T12:06:13;0.70;99.90
7598;DHT22;3840;59.32098800;18.06423600;2023-11-22T12:08:39;0.70;99.90
7598;DHT22;3840;59.32098800;18.06423600;2023-11-22T12:11:05;0.70;99.90
7598;DHT22;3840;59.32098800;18.06423600;2023-11-22T12:13:34;0.80;99.90
7598;DHT22;3840;59.32098800;18.06423600;2023-11-22T12:16:05;0.80;99.90
7598;DHT22;3840;59.32098800;18.06423600;2023-11-22T12:19:02;0.80;99.90
7598;DHT22;3840;59.32098800;18.06423600;2023-11-22T12:21:30;0.90;99.90
7598;DHT22;3840;59.32098800;18.06423600;2023-11-22T12:23:56;1.20;99.90
7598;DHT22;3840;59.32098800;18.06423600;2023-11-22T12:26:22;1.20;99.90
7598;DHT22;3840;59.32098800;18.06423600;2023-11-22T12:28:49;1.00;99.90
7598;DHT22;3840;59.32098800;18.06423600;2023-11-22T12:31:16;1.00;99.90
7598;DHT22;3840;59.32098800;18.06423600;2023-11-22T12:33:42;0.90;99.90
7598;DHT22;3840;59.32098800;18.06423600;2023-11-22T12:36:09;1.00;99.90
7598;DHT22;3840;59.32098800;18.06423600;2023-11-22T12:38:36;1.00;99.90
7598;DHT22;3840;59.32098800;18.06423600;2023-11-22T12:41:02;1.00;99.90
7598;DHT22;3840;59.32098800;18.06423600;2023-11-22T12:43:29;1.10;99.90
7598;DHT22;3840;59.32098800;18.06423600;2023-11-22T12:46:01;1.20;99.90
7598;DHT22;3840;59.32098800;18.06423600;2023-11-22T12:48:27;1.20;99.90
7598;DHT22;3840;59.32098800;18.06423600;2023-11-22T12:50:56;1.20;99.90
7598;DHT22;3840;59.32098800;18.06423600;2023-11-22T12:53:23;1.30;99.90
7598;DHT22;3840;59.32098800;18.06423600;2023-11-22T12:55:52;1.30;99.90
7598;DHT22;3840;59.32098800;18.06423600;2023-11-22T12:58:22;1.30;99.90
7598;DHT22;3840;59.32098800;18.06423600;2023-11-22T13:00:50;1.40;99.90
7598;DHT22;3840;59.32098800;18.06423600;2023-11-22T13:03:16;1.50;99.90
7598;DHT22;3840;59.32098800;18.06423600;2023-11-22T13:05:43;1.90;99.90
7598;DHT22;3840;59.32098800;18.06423600;2023-11-22T13:08:10;1.50;99.90
7598;DHT22;3840;59.32098800;18.06423600;2023-11-22T13:10:39;1.40;99.90
7598;DHT22;3840;59.32098800;18.06423600;2023-11-22T13:13:05;1.70;99.90
7598;DHT22;3840;59.32098800;18.06423600;2023-11-22T13:15:34;1.50;99.90
7598;DHT22;3840;59.32098800;18.06423600;2023-11-22T13:18:00;1.40;99.90
7598;DHT22;3840;59.32098800;18.06423600;2023-11-22T13:20:26;1.40;99.90
7598;DHT22;3840;59.32098800;18.06423600;2023-11-22T13:22:53;1.70;99.90
7598;DHT22;3840;59.32098800;18.06423600;2023-11-22T13:25:19;1.40;99.90
7598;DHT22;3840;59.32098800;18.06423600;2023-11-22T13:27:48;1.40;99.90
7598;DHT22;3840;59.32098800;18.06423600;2023-11-22T13:30:15;1.40;99.90
7598;DHT22;3840;59.32098800;18.06423600;2023-11-22T13:32:45;1.60;99.90
7598;DHT22;3840;59.32098800;18.06423600;2023-11-22T13:35:10;1.30;99.90
7598;DHT22;3840;59.32098800;18.06423600;2023-11-22T13:37:47;2.30;99.90